Fantasy — H3GS — position and weather

sailwx.info

Track history (hours):
 
Tides and Currents Weather Stations Pressure Air Temp Water Temp Dewpoint Dewpoint Depression Visibility Wind Speed Wind Dir Waves Ship Positions

Fantasy

Operator: Carnival Cruise Lines

Last reported at 2016-May-24 02:33 UTC. Time now 2016-May-26 20:23 UTC.
Position N 26°14' W 079°17'.

Type: Ship. MMSI: 353486000.

Date/timePositionNaut miles runAvg speedWind from/ knotsBaromVisibWave heightAir tempDewpointWater temp
2016-May-24 02:33N 26°14' W 079°17'1515.4
2016-May-24 01:33N 26°05' W 079°31'1616.2
2016-May-24 00:33N 25°57' W 079°46'1717.1
2016-May-23 23:33N 25°48' W 080°02'7 3.6
2016-May-23 21:33N 25°47' W 080°10'0 0.0
2016-May-23 19:05N 25°47' W 080°10'0 0.0
2016-May-23 16:28N 25°47' W 080°10'0 0.0
2016-May-23 10:31N 25°47' W 080°10'2 1.6
2016-May-23 09:31N 25°46' W 080°09'8 8.4
2016-May-23 08:33N 25°49' W 079°60'7 6.8
2016-May-23 07:33N 25°52' W 079°53'8 7.8
2016-May-23 06:33N 25°56' W 079°46'8 8.5
2016-May-23 05:33N 26°00' W 079°38'9 8.9
2016-May-23 04:33N 26°05' W 079°29'1010.0
2016-May-23 03:33N 26°08' W 079°19'26 0.5
2016-May-21 03:05N 26°14' W 078°50'911.1
2016-May-21 02:15N 26°15' W 078°60'811.0
2016-May-21 01:33N 26°15' W 079°08'1211.8
2016-May-21 00:33N 26°10' W 079°20'1414.2
2016-May-20 23:33N 26°02' W 079°34'1716.6
2016-May-20 22:33N 25°54' W 079°49'1615.6
2016-May-20 21:33N 25°46' W 080°05'5 5.3
2016-May-20 20:33N 25°47' W 080°10'0 0.2
2016-May-20 19:30N 25°47' W 080°10'0 0.0
2016-May-20 18:27N 25°47' W 080°10'0 0.0
2016-May-20 17:21N 25°47' W 080°10'0 0.0
2016-May-20 16:29N 25°47' W 080°10'0 0.0
2016-May-20 15:23N 25°47' W 080°10'0 0.0
2016-May-20 14:28N 25°47' W 080°10'0 0.0
2016-May-20 13:25N 25°47' W 080°10'0 0.0
2016-May-20 12:33N 25°47' W 080°10'0 0.0
2016-May-20 11:27N 25°47' W 080°10'2 2.0
2016-May-20 10:32N 25°46' W 080°08'10 9.7
2016-May-20 09:33N 25°44' W 079°58'12217.0
2016-May-20 02:24N 23°59' W 081°05'1517.8
2016-May-20 01:33N 23°52' W 081°20'22616.7
2016-May-19 12:00N 22°12' W 085°00'14017.6 110 / 191014.010.8 0.527.025.628.7
2016-May-19 04:04N 20°40' W 086°53'1019.3
2016-May-19 03:34N 20°32' W 086°59'3 3.2
2016-May-19 02:31N 20°29' W 086°59'0 0.0
2016-May-19 01:31N 20°29' W 086°59'0 0.0
2016-May-19 00:34N 20°29' W 086°59'0 0.0
2016-May-18 23:34N 20°29' W 086°59'0 0.0
2016-May-18 22:34N 20°29' W 086°59'0 0.0
2016-May-18 21:33N 20°29' W 086°59'0 0.0
2016-May-18 20:34N 20°29' W 086°59'0 0.0
2016-May-18 19:34N 20°29' W 086°59'0 0.0
2016-May-18 18:34N 20°29' W 086°59'0 0.0
2016-May-18 17:33N 20°29' W 086°59'0 0.2
2016-May-18 16:33N 20°29' W 086°59'9 9.4
2016-May-18 15:33N 20°38' W 086°55'5716.1
2016-May-18 12:00N 21°12' W 086°06'21972.8 120 / 251012.010.8 1.527.025.628.9
2016-May-18 09:00N 24°48' W 085°30'293 9.3 140 / 211012.010.8 1.026.024.628.8
2016-May-17 01:33N 24°56' W 080°07'4511.3
2016-May-16 21:32N 25°41' W 079°58'1110.9
2016-May-16 20:33N 25°46' W 080°08'2 0.2
2016-May-16 11:19N 25°47' W 080°10'0 0.0
2016-May-16 10:22N 25°47' W 080°10'1 0.8
2016-May-16 09:32N 25°46' W 080°09'9 9.1
2016-May-16 08:34N 25°49' W 079°60'1010.0
2016-May-16 07:34N 25°54' W 079°50'8 8.4
2016-May-16 06:33N 25°58' W 079°42'8 8.1
2016-May-16 05:33N 26°02' W 079°34'27 8.9
2016-May-16 02:32N 26°16' W 079°09'121 3.9
2016-May-14 19:29N 25°05' W 077°21'0 0.0
2016-May-14 17:31N 25°05' W 077°21'45 5.3
2016-May-14 09:00N 25°48' W 077°36'   140 / 101014.010.8 24.021.026.4
Track history (hours):
 
Tides and Currents Weather Stations Pressure Air Temp Water Temp Dewpoint Dewpoint Depression Visibility Wind Speed Wind Dir Waves Ship Positions

Fantasy

Operator: Carnival Cruise Lines

Last reported at 2016-May-24 02:33 UTC. Time now 2016-May-26 20:23 UTC.
Position N 26°14' W 079°17'.

Type: Ship. MMSI: 353486000.

Date/timePositionNaut miles runAvg speedWind from/ knotsBaromVisibWave heightAir tempDewpointWater temp
2016-May-24 02:33N 26°14' W 079°17'1515.4
2016-May-24 01:33N 26°05' W 079°31'1616.2
2016-May-24 00:33N 25°57' W 079°46'1717.1
2016-May-23 23:33N 25°48' W 080°02'7 3.6
2016-May-23 21:33N 25°47' W 080°10'0 0.0
2016-May-23 19:05N 25°47' W 080°10'0 0.0
2016-May-23 16:28N 25°47' W 080°10'0 0.0
2016-May-23 10:31N 25°47' W 080°10'2 1.6
2016-May-23 09:31N 25°46' W 080°09'8 8.4
2016-May-23 08:33N 25°49' W 079°60'7 6.8
2016-May-23 07:33N 25°52' W 079°53'8 7.8
2016-May-23 06:33N 25°56' W 079°46'8 8.5
2016-May-23 05:33N 26°00' W 079°38'9 8.9
2016-May-23 04:33N 26°05' W 079°29'1010.0
2016-May-23 03:33N 26°08' W 079°19'26 0.5
2016-May-21 03:05N 26°14' W 078°50'911.1
2016-May-21 02:15N 26°15' W 078°60'811.0
2016-May-21 01:33N 26°15' W 079°08'1211.8
2016-May-21 00:33N 26°10' W 079°20'1414.2
2016-May-20 23:33N 26°02' W 079°34'1716.6
2016-May-20 22:33N 25°54' W 079°49'1615.6
2016-May-20 21:33N 25°46' W 080°05'5 5.3
2016-May-20 20:33N 25°47' W 080°10'0 0.2
2016-May-20 19:30N 25°47' W 080°10'0 0.0
2016-May-20 18:27N 25°47' W 080°10'0 0.0
2016-May-20 17:21N 25°47' W 080°10'0 0.0
2016-May-20 16:29N 25°47' W 080°10'0 0.0
2016-May-20 15:23N 25°47' W 080°10'0 0.0
2016-May-20 14:28N 25°47' W 080°10'0 0.0
2016-May-20 13:25N 25°47' W 080°10'0 0.0
2016-May-20 12:33N 25°47' W 080°10'0 0.0
2016-May-20 11:27N 25°47' W 080°10'2 2.0
2016-May-20 10:32N 25°46' W 080°08'10 9.7
2016-May-20 09:33N 25°44' W 079°58'12217.0
2016-May-20 02:24N 23°59' W 081°05'1517.8
2016-May-20 01:33N 23°52' W 081°20'22616.7
2016-May-19 12:00N 22°12' W 085°00'14017.6 110 / 191014.010.8 0.527.025.628.7
2016-May-19 04:04N 20°40' W 086°53'1019.3
2016-May-19 03:34N 20°32' W 086°59'3 3.2
2016-May-19 02:31N 20°29' W 086°59'0 0.0
2016-May-19 01:31N 20°29' W 086°59'0 0.0
2016-May-19 00:34N 20°29' W 086°59'0 0.0
2016-May-18 23:34N 20°29' W 086°59'0 0.0
2016-May-18 22:34N 20°29' W 086°59'0 0.0
2016-May-18 21:33N 20°29' W 086°59'0 0.0
2016-May-18 20:34N 20°29' W 086°59'0 0.0
2016-May-18 19:34N 20°29' W 086°59'0 0.0
2016-May-18 18:34N 20°29' W 086°59'0 0.0
2016-May-18 17:33N 20°29' W 086°59'0 0.2
2016-May-18 16:33N 20°29' W 086°59'9 9.4
2016-May-18 15:33N 20°38' W 086°55'5716.1
2016-May-18 12:00N 21°12' W 086°06'21972.8 120 / 251012.010.8 1.527.025.628.9
2016-May-18 09:00N 24°48' W 085°30'293 9.3 140 / 211012.010.8 1.026.024.628.8
2016-May-17 01:33N 24°56' W 080°07'4511.3
2016-May-16 21:32N 25°41' W 079°58'1110.9
2016-May-16 20:33N 25°46' W 080°08'2 0.2
2016-May-16 11:19N 25°47' W 080°10'0 0.0
2016-May-16 10:22N 25°47' W 080°10'1 0.8
2016-May-16 09:32N 25°46' W 080°09'9 9.1
2016-May-16 08:34N 25°49' W 079°60'1010.0
2016-May-16 07:34N 25°54' W 079°50'8 8.4
2016-May-16 06:33N 25°58' W 079°42'8 8.1
2016-May-16 05:33N 26°02' W 079°34'27 8.9
2016-May-16 02:32N 26°16' W 079°09'121 3.9
2016-May-14 19:29N 25°05' W 077°21'0 0.0
2016-May-14 17:31N 25°05' W 077°21'45 5.3
2016-May-14 09:00N 25°48' W 077°36'   140 / 101014.010.8 24.021.026.4

Dump ship's entire track history